Search for airport 
image banner adimage banner ad
image banner ad

SVBQ - Boquemonte

Located in Portuguesa, Venezuela

ICAO - SVBQ, IATA -

Data provided by Airmate  

General information

Coordinates: N9°12'0" W69°45'0"
Elevation is 1001 feet MSL.
 
Rated:
View ratings: [VIEW]


View others Airports in Zulia

Operational data

Open for public use
Current time UTC:
Current local time:
Weather at : SVGU - Guanare Ntl ( 19 km )
METAR: SVGU 062202Z AUTO 34004KT NCD 26/23 Q1013
View NOTAMs / SUP AIP / TFR affecting this airport [VIEW]
Communications frequencies: [VIEW]

Runways:

RWY identifierQFULength (ft)Width (ft)SurfaceLDA (ft)
18180°471598ASP
36262549

Airport contact information

Address: Portuguesa Venezuela

Satellite view of SVBQ